sensor_id;sensor_type;location;lat;lon;timestamp;P1;durP1;ratioP1;P2;durP2;ratioP2
6095;SDS011;25081;42.698;23.298;2023-04-03T00:02:03;7.28;;;4.47;;
6095;SDS011;25081;42.698;23.298;2023-04-03T00:04:14;8.75;;;4.58;;
6095;SDS011;25081;42.698;23.298;2023-04-03T00:06:24;8.93;;;4.22;;
6095;SDS011;25081;42.698;23.298;2023-04-03T00:08:35;6.95;;;4.50;;
6095;SDS011;25081;42.698;23.298;2023-04-03T00:10:45;6.17;;;4.53;;
6095;SDS011;25081;42.698;23.298;2023-04-03T00:12:56;7.05;;;4.03;;
6095;SDS011;25081;42.698;23.298;2023-04-03T00:15:07;8.83;;;3.83;;
6095;SDS011;25081;42.698;23.298;2023-04-03T00:17:18;7.17;;;4.87;;
6095;SDS011;25081;42.698;23.298;2023-04-03T00:19:29;5.78;;;3.90;;
6095;SDS011;25081;42.698;23.298;2023-04-03T00:21:39;6.60;;;4.30;;
6095;SDS011;25081;42.698;23.298;2023-04-03T00:23:50;6.70;;;4.60;;
6095;SDS011;25081;42.698;23.298;2023-04-03T00:26:00;6.10;;;3.92;;
6095;SDS011;25081;42.698;23.298;2023-04-03T00:28:11;8.43;;;4.40;;
6095;SDS011;25081;42.698;23.298;2023-04-03T00:30:22;6.30;;;4.33;;
6095;SDS011;25081;42.698;23.298;2023-04-03T00:32:33;7.10;;;4.75;;
6095;SDS011;25081;42.698;23.298;2023-04-03T00:34:43;7.58;;;4.85;;
6095;SDS011;25081;42.698;23.298;2023-04-03T00:36:53;6.80;;;4.65;;
6095;SDS011;25081;42.698;23.298;2023-04-03T00:39:04;7.42;;;5.03;;
6095;SDS011;25081;42.698;23.298;2023-04-03T00:41:14;7.75;;;4.55;;
6095;SDS011;25081;42.698;23.298;2023-04-03T00:43:25;6.83;;;4.67;;
6095;SDS011;25081;42.698;23.298;2023-04-03T00:45:36;8.40;;;5.00;;
6095;SDS011;25081;42.698;23.298;2023-04-03T00:47:46;5.80;;;4.87;;
6095;SDS011;25081;42.698;23.298;2023-04-03T00:49:56;10.38;;;5.20;;
6095;SDS011;25081;42.698;23.298;2023-04-03T00:52:08;7.72;;;5.80;;
6095;SDS011;25081;42.698;23.298;2023-04-03T00:54:17;8.85;;;5.67;;
6095;SDS011;25081;42.698;23.298;2023-04-03T00:56:28;6.22;;;5.30;;
6095;SDS011;25081;42.698;23.298;2023-04-03T00:58:39;10.68;;;6.40;;
6095;SDS011;25081;42.698;23.298;2023-04-03T01:00:50;8.33;;;5.67;;
6095;SDS011;25081;42.698;23.298;2023-04-03T01:03:00;10.28;;;6.20;;
6095;SDS011;25081;42.698;23.298;2023-04-03T01:05:11;10.80;;;6.62;;
6095;SDS011;25081;42.698;23.298;2023-04-03T01:07:22;9.95;;;6.05;;
6095;SDS011;25081;42.698;23.298;2023-04-03T01:09:32;8.55;;;5.42;;
6095;SDS011;25081;42.698;23.298;2023-04-03T01:11:42;9.88;;;6.60;;
6095;SDS011;25081;42.698;23.298;2023-04-03T01:13:53;10.88;;;7.12;;
6095;SDS011;25081;42.698;23.298;2023-04-03T01:16:05;14.40;;;8.23;;
6095;SDS011;25081;42.698;23.298;2023-04-03T01:18:15;13.83;;;9.35;;
6095;SDS011;25081;42.698;23.298;2023-04-03T01:23:27;15.68;;;8.03;;
6095;SDS011;25081;42.698;23.298;2023-04-03T01:25:39;17.75;;;7.78;;
6095;SDS011;25081;42.698;23.298;2023-04-03T01:27:49;12.85;;;6.83;;
6095;SDS011;25081;42.698;23.298;2023-04-03T01:29:59;8.58;;;5.75;;
6095;SDS011;25081;42.698;23.298;2023-04-03T01:32:10;11.38;;;6.53;;
6095;SDS011;25081;42.698;23.298;2023-04-03T01:34:21;12.55;;;6.35;;
6095;SDS011;25081;42.698;23.298;2023-04-03T01:36:31;8.88;;;4.65;;
6095;SDS011;25081;42.698;23.298;2023-04-03T01:38:42;7.95;;;4.70;;
6095;SDS011;25081;42.698;23.298;2023-04-03T01:40:52;20.02;;;4.90;;
6095;SDS011;25081;42.698;23.298;2023-04-03T01:43:03;8.45;;;4.50;;
6095;SDS011;25081;42.698;23.298;2023-04-03T01:45:14;8.53;;;5.30;;
6095;SDS011;25081;42.698;23.298;2023-04-03T01:47:24;7.37;;;4.75;;
6095;SDS011;25081;42.698;23.298;2023-04-03T01:49:35;6.80;;;4.30;;
6095;SDS011;25081;42.698;23.298;2023-04-03T01:51:45;7.17;;;4.58;;
6095;SDS011;25081;42.698;23.298;2023-04-03T01:53:55;8.70;;;4.55;;
6095;SDS011;25081;42.698;23.298;2023-04-03T01:56:07;7.28;;;4.67;;
6095;SDS011;25081;42.698;23.298;2023-04-03T01:58:17;6.03;;;4.30;;
6095;SDS011;25081;42.698;23.298;2023-04-03T02:00:27;5.87;;;4.60;;
6095;SDS011;25081;42.698;23.298;2023-04-03T02:02:38;5.47;;;4.55;;
6095;SDS011;25081;42.698;23.298;2023-04-03T02:04:48;5.85;;;3.90;;
6095;SDS011;25081;42.698;23.298;2023-04-03T02:06:59;5.92;;;3.72;;
6095;SDS011;25081;42.698;23.298;2023-04-03T02:09:09;7.35;;;4.97;;
6095;SDS011;25081;42.698;23.298;2023-04-03T02:11:19;26.02;;;4.72;;
6095;SDS011;25081;42.698;23.298;2023-04-03T02:13:30;10.00;;;5.33;;
6095;SDS011;25081;42.698;23.298;2023-04-03T02:15:40;9.10;;;4.60;;
6095;SDS011;25081;42.698;23.298;2023-04-03T02:17:51;6.75;;;4.80;;
6095;SDS011;25081;42.698;23.298;2023-04-03T02:20:01;5.95;;;4.12;;
6095;SDS011;25081;42.698;23.298;2023-04-03T02:22:12;10.32;;;5.10;;
6095;SDS011;25081;42.698;23.298;2023-04-03T02:24:30;9.45;;;4.85;;
6095;SDS011;25081;42.698;23.298;2023-04-03T02:26:41;8.58;;;4.53;;
6095;SDS011;25081;42.698;23.298;2023-04-03T02:28:51;11.53;;;4.87;;
6095;SDS011;25081;42.698;23.298;2023-04-03T02:31:02;7.47;;;5.05;;
6095;SDS011;25081;42.698;23.298;2023-04-03T02:33:12;7.92;;;4.95;;
6095;SDS011;25081;42.698;23.298;2023-04-03T02:35:23;5.95;;;4.00;;
6095;SDS011;25081;42.698;23.298;2023-04-03T02:37:33;7.20;;;4.62;;
6095;SDS011;25081;42.698;23.298;2023-04-03T02:39:44;10.15;;;4.70;;
6095;SDS011;25081;42.698;23.298;2023-04-03T02:41:54;8.70;;;5.78;;
6095;SDS011;25081;42.698;23.298;2023-04-03T02:44:05;8.60;;;5.70;;
6095;SDS011;25081;42.698;23.298;2023-04-03T02:46:15;8.35;;;5.35;;
6095;SDS011;25081;42.698;23.298;2023-04-03T02:48:26;11.03;;;7.45;;
6095;SDS011;25081;42.698;23.298;2023-04-03T02:50:36;16.37;;;5.45;;
6095;SDS011;25081;42.698;23.298;2023-04-03T02:52:47;11.22;;;5.72;;
6095;SDS011;25081;42.698;23.298;2023-04-03T02:54:57;17.02;;;7.12;;
6095;SDS011;25081;42.698;23.298;2023-04-03T02:57:07;23.60;;;6.70;;
6095;SDS011;25081;42.698;23.298;2023-04-03T02:59:18;17.30;;;8.15;;
6095;SDS011;25081;42.698;23.298;2023-04-03T03:01:28;15.25;;;7.53;;
6095;SDS011;25081;42.698;23.298;2023-04-03T03:03:39;13.55;;;8.13;;
6095;SDS011;25081;42.698;23.298;2023-04-03T03:05:49;10.60;;;6.22;;
6095;SDS011;25081;42.698;23.298;2023-04-03T03:08:00;23.02;;;6.47;;
6095;SDS011;25081;42.698;23.298;2023-04-03T03:10:10;35.43;;;23.07;;
6095;SDS011;25081;42.698;23.298;2023-04-03T03:12:21;45.28;;;24.43;;
6095;SDS011;25081;42.698;23.298;2023-04-03T03:14:31;42.60;;;20.20;;
6095;SDS011;25081;42.698;23.298;2023-04-03T03:16:42;19.23;;;10.43;;
6095;SDS011;25081;42.698;23.298;2023-04-03T03:18:52;14.40;;;7.92;;
6095;SDS011;25081;42.698;23.298;2023-04-03T03:21:03;18.67;;;9.10;;
6095;SDS011;25081;42.698;23.298;2023-04-03T03:23:13;38.78;;;15.28;;
6095;SDS011;25081;42.698;23.298;2023-04-03T03:25:24;17.37;;;9.38;;
6095;SDS011;25081;42.698;23.298;2023-04-03T03:27:34;12.60;;;7.30;;
6095;SDS011;25081;42.698;23.298;2023-04-03T03:29:45;20.57;;;9.45;;
6095;SDS011;25081;42.698;23.298;2023-04-03T03:31:55;17.20;;;8.03;;
6095;SDS011;25081;42.698;23.298;2023-04-03T03:34:06;23.65;;;8.85;;
6095;SDS011;25081;42.698;23.298;2023-04-03T03:36:16;12.33;;;7.53;;
6095;SDS011;25081;42.698;23.298;2023-04-03T03:38:27;18.87;;;9.15;;
6095;SDS011;25081;42.698;23.298;2023-04-03T03:40:37;30.23;;;9.68;;
6095;SDS011;25081;42.698;23.298;2023-04-03T03:42:48;16.48;;;7.70;;
6095;SDS011;25081;42.698;23.298;2023-04-03T03:44:58;10.72;;;6.50;;
6095;SDS011;25081;42.698;23.298;2023-04-03T03:47:08;12.98;;;7.17;;
6095;SDS011;25081;42.698;23.298;2023-04-03T03:49:19;13.53;;;7.75;;
6095;SDS011;25081;42.698;23.298;2023-04-03T03:51:30;14.85;;;7.28;;
6095;SDS011;25081;42.698;23.298;2023-04-03T03:53:40;11.33;;;7.55;;
6095;SDS011;25081;42.698;23.298;2023-04-03T03:55:51;13.53;;;6.92;;
6095;SDS011;25081;42.698;23.298;2023-04-03T03:58:01;11.20;;;7.83;;
6095;SDS011;25081;42.698;23.298;2023-04-03T04:00:13;15.63;;;7.78;;
6095;SDS011;25081;42.698;23.298;2023-04-03T04:02:24;12.75;;;8.13;;
6095;SDS011;25081;42.698;23.298;2023-04-03T04:04:34;14.33;;;9.85;;
6095;SDS011;25081;42.698;23.298;2023-04-03T04:06:45;14.55;;;7.40;;
6095;SDS011;25081;42.698;23.298;2023-04-03T04:08:55;18.30;;;9.03;;
6095;SDS011;25081;42.698;23.298;2023-04-03T04:11:06;19.98;;;9.18;;
6095;SDS011;25081;42.698;23.298;2023-04-03T04:13:16;16.70;;;9.48;;
6095;SDS011;25081;42.698;23.298;2023-04-03T04:15:27;16.05;;;9.43;;
6095;SDS011;25081;42.698;23.298;2023-04-03T04:17:37;18.98;;;8.80;;
6095;SDS011;25081;42.698;23.298;2023-04-03T04:19:48;15.08;;;9.05;;
6095;SDS011;25081;42.698;23.298;2023-04-03T04:21:58;12.73;;;8.93;;
6095;SDS011;25081;42.698;23.298;2023-04-03T04:24:09;25.40;;;9.25;;
6095;SDS011;25081;42.698;23.298;2023-04-03T04:26:19;25.62;;;11.22;;
6095;SDS011;25081;42.698;23.298;2023-04-03T04:28:30;35.55;;;12.58;;
6095;SDS011;25081;42.698;23.298;2023-04-03T04:30:40;42.90;;;16.97;;
6095;SDS011;25081;42.698;23.298;2023-04-03T04:32:51;29.10;;;14.40;;
6095;SDS011;25081;42.698;23.298;2023-04-03T04:35:01;27.98;;;14.15;;
6095;SDS011;25081;42.698;23.298;2023-04-03T04:37:12;31.25;;;9.90;;
6095;SDS011;25081;42.698;23.298;2023-04-03T04:39:23;32.90;;;11.35;;
6095;SDS011;25081;42.698;23.298;2023-04-03T04:41:34;23.67;;;10.60;;
6095;SDS011;25081;42.698;23.298;2023-04-03T04:43:44;33.02;;;13.03;;
6095;SDS011;25081;42.698;23.298;2023-04-03T04:46:01;34.45;;;11.55;;
6095;SDS011;25081;42.698;23.298;2023-04-03T04:48:12;35.80;;;12.25;;
6095;SDS011;25081;42.698;23.298;2023-04-03T04:50:23;34.18;;;10.30;;
6095;SDS011;25081;42.698;23.298;2023-04-03T04:52:33;29.02;;;10.75;;
6095;SDS011;25081;42.698;23.298;2023-04-03T04:54:44;19.62;;;10.28;;
6095;SDS011;25081;42.698;23.298;2023-04-03T04:56:54;26.07;;;10.65;;
6095;SDS011;25081;42.698;23.298;2023-04-03T04:59:05;34.90;;;10.98;;
6095;SDS011;25081;42.698;23.298;2023-04-03T05:01:15;25.75;;;11.08;;
6095;SDS011;25081;42.698;23.298;2023-04-03T05:03:26;23.77;;;9.28;;
6095;SDS011;25081;42.698;23.298;2023-04-03T05:05:36;26.93;;;13.20;;
6095;SDS011;25081;42.698;23.298;2023-04-03T05:07:47;34.53;;;13.35;;
6095;SDS011;25081;42.698;23.298;2023-04-03T05:09:57;29.27;;;14.93;;
6095;SDS011;25081;42.698;23.298;2023-04-03T05:12:08;23.55;;;13.03;;
6095;SDS011;25081;42.698;23.298;2023-04-03T05:14:19;20.08;;;11.28;;
6095;SDS011;25081;42.698;23.298;2023-04-03T05:16:29;23.22;;;11.80;;
6095;SDS011;25081;42.698;23.298;2023-04-03T05:18:40;22.93;;;11.25;;
6095;SDS011;25081;42.698;23.298;2023-04-03T05:23:14;20.55;;;13.15;;
6095;SDS011;25081;42.698;23.298;2023-04-03T05:25:25;18.05;;;11.18;;
6095;SDS011;25081;42.698;23.298;2023-04-03T05:27:38;14.33;;;10.05;;
6095;SDS011;25081;42.698;23.298;2023-04-03T05:29:48;14.58;;;9.75;;
6095;SDS011;25081;42.698;23.298;2023-04-03T05:31:59;20.10;;;9.75;;
6095;SDS011;25081;42.698;23.298;2023-04-03T05:34:09;17.15;;;8.80;;
6095;SDS011;25081;42.698;23.298;2023-04-03T05:36:20;12.53;;;7.95;;
6095;SDS011;25081;42.698;23.298;2023-04-03T05:38:30;15.13;;;8.05;;
6095;SDS011;25081;42.698;23.298;2023-04-03T05:40:49;19.30;;;8.58;;
6095;SDS011;25081;42.698;23.298;2023-04-03T05:43:32;27.60;;;11.65;;
6095;SDS011;25081;42.698;23.298;2023-04-03T05:45:43;19.15;;;11.63;;
6095;SDS011;25081;42.698;23.298;2023-04-03T05:47:54;19.80;;;11.78;;
6095;SDS011;25081;42.698;23.298;2023-04-03T05:50:05;21.35;;;13.15;;
6095;SDS011;25081;42.698;23.298;2023-04-03T05:52:19;28.15;;;14.45;;
6095;SDS011;25081;42.698;23.298;2023-04-03T05:54:29;31.33;;;16.23;;
6095;SDS011;25081;42.698;23.298;2023-04-03T05:56:39;29.18;;;14.73;;
6095;SDS011;25081;42.698;23.298;2023-04-03T05:58:49;36.15;;;13.30;;
6095;SDS011;25081;42.698;23.298;2023-04-03T06:01:00;22.98;;;13.28;;
6095;SDS011;25081;42.698;23.298;2023-04-03T06:03:11;26.68;;;13.13;;
6095;SDS011;25081;42.698;23.298;2023-04-03T06:05:21;25.15;;;11.83;;
6095;SDS011;25081;42.698;23.298;2023-04-03T06:07:31;31.40;;;12.98;;
6095;SDS011;25081;42.698;23.298;2023-04-03T06:09:42;29.75;;;12.18;;
6095;SDS011;25081;42.698;23.298;2023-04-03T06:11:52;19.67;;;11.33;;
6095;SDS011;25081;42.698;23.298;2023-04-03T06:14:03;23.47;;;12.20;;
6095;SDS011;25081;42.698;23.298;2023-04-03T06:16:13;23.55;;;13.65;;
6095;SDS011;25081;42.698;23.298;2023-04-03T06:18:24;21.35;;;13.30;;
6095;SDS011;25081;42.698;23.298;2023-04-03T06:20:34;26.62;;;13.65;;
6095;SDS011;25081;42.698;23.298;2023-04-03T06:22:45;28.55;;;16.10;;
6095;SDS011;25081;42.698;23.298;2023-04-03T06:24:55;24.45;;;14.50;;
6095;SDS011;25081;42.698;23.298;2023-04-03T06:27:06;23.18;;;13.90;;
6095;SDS011;25081;42.698;23.298;2023-04-03T06:29:16;26.00;;;15.10;;
6095;SDS011;25081;42.698;23.298;2023-04-03T06:31:27;27.90;;;14.80;;
6095;SDS011;25081;42.698;23.298;2023-04-03T06:33:37;24.75;;;14.70;;
6095;SDS011;25081;42.698;23.298;2023-04-03T06:35:47;26.50;;;14.05;;
6095;SDS011;25081;42.698;23.298;2023-04-03T06:37:58;28.62;;;13.08;;
6095;SDS011;25081;42.698;23.298;2023-04-03T06:40:10;24.05;;;12.78;;
6095;SDS011;25081;42.698;23.298;2023-04-03T06:42:23;19.50;;;11.48;;
6095;SDS011;25081;42.698;23.298;2023-04-03T06:44:33;25.37;;;11.47;;
6095;SDS011;25081;42.698;23.298;2023-04-03T06:46:44;33.45;;;12.00;;
6095;SDS011;25081;42.698;23.298;2023-04-03T06:48:55;18.87;;;10.20;;
6095;SDS011;25081;42.698;23.298;2023-04-03T06:51:05;21.55;;;10.25;;
6095;SDS011;25081;42.698;23.298;2023-04-03T06:53:16;21.93;;;10.80;;
6095;SDS011;25081;42.698;23.298;2023-04-03T06:55:26;17.03;;;10.03;;
6095;SDS011;25081;42.698;23.298;2023-04-03T06:57:37;23.93;;;11.70;;
6095;SDS011;25081;42.698;23.298;2023-04-03T06:59:47;26.97;;;12.98;;
6095;SDS011;25081;42.698;23.298;2023-04-03T07:01:58;18.43;;;10.83;;
6095;SDS011;25081;42.698;23.298;2023-04-03T07:04:08;20.27;;;11.33;;
6095;SDS011;25081;42.698;23.298;2023-04-03T07:06:19;18.17;;;11.18;;
6095;SDS011;25081;42.698;23.298;2023-04-03T07:08:29;19.85;;;10.13;;
6095;SDS011;25081;42.698;23.298;2023-04-03T07:10:40;21.40;;;10.95;;
6095;SDS011;25081;42.698;23.298;2023-04-03T07:12:50;23.07;;;12.55;;
6095;SDS011;25081;42.698;23.298;2023-04-03T07:15:00;18.37;;;11.90;;
6095;SDS011;25081;42.698;23.298;2023-04-03T07:17:11;21.40;;;13.35;;
6095;SDS011;25081;42.698;23.298;2023-04-03T07:19:22;19.00;;;11.95;;
6095;SDS011;25081;42.698;23.298;2023-04-03T07:21:33;22.00;;;13.20;;
6095;SDS011;25081;42.698;23.298;2023-04-03T07:23:43;28.13;;;12.43;;
6095;SDS011;25081;42.698;23.298;2023-04-03T07:25:54;31.83;;;13.00;;
6095;SDS011;25081;42.698;23.298;2023-04-03T07:28:04;22.93;;;13.50;;
6095;SDS011;25081;42.698;23.298;2023-04-03T07:30:15;17.63;;;12.03;;
6095;SDS011;25081;42.698;23.298;2023-04-03T07:32:26;27.63;;;14.00;;
6095;SDS011;25081;42.698;23.298;2023-04-03T07:34:36;22.80;;;12.50;;
6095;SDS011;25081;42.698;23.298;2023-04-03T07:36:47;27.20;;;13.00;;
6095;SDS011;25081;42.698;23.298;2023-04-03T07:38:57;23.00;;;13.33;;
6095;SDS011;25081;42.698;23.298;2023-04-03T07:41:10;24.00;;;12.70;;
6095;SDS011;25081;42.698;23.298;2023-04-03T07:43:21;16.93;;;11.00;;
6095;SDS011;25081;42.698;23.298;2023-04-03T07:45:31;20.43;;;11.70;;
6095;SDS011;25081;42.698;23.298;2023-04-03T07:47:42;21.47;;;11.90;;
6095;SDS011;25081;42.698;23.298;2023-04-03T07:49:52;19.07;;;10.13;;
6095;SDS011;25081;42.698;23.298;2023-04-03T07:52:03;21.42;;;11.08;;
6095;SDS011;25081;42.698;23.298;2023-04-03T07:54:13;12.30;;;8.73;;
6095;SDS011;25081;42.698;23.298;2023-04-03T07:56:24;16.80;;;9.00;;
6095;SDS011;25081;42.698;23.298;2023-04-03T07:58:34;17.80;;;9.70;;
6095;SDS011;25081;42.698;23.298;2023-04-03T08:00:45;14.83;;;11.17;;
6095;SDS011;25081;42.698;23.298;2023-04-03T08:02:55;22.40;;;12.27;;
6095;SDS011;25081;42.698;23.298;2023-04-03T08:05:07;24.23;;;13.93;;
6095;SDS011;25081;42.698;23.298;2023-04-03T08:07:18;21.43;;;14.00;;
6095;SDS011;25081;42.698;23.298;2023-04-03T08:09:28;23.47;;;12.07;;
6095;SDS011;25081;42.698;23.298;2023-04-03T08:11:39;18.77;;;11.60;;
6095;SDS011;25081;42.698;23.298;2023-04-03T08:13:50;15.40;;;11.90;;
6095;SDS011;25081;42.698;23.298;2023-04-03T08:16:07;20.03;;;12.47;;
6095;SDS011;25081;42.698;23.298;2023-04-03T08:18:19;18.57;;;11.17;;
6095;SDS011;25081;42.698;23.298;2023-04-03T08:20:29;16.07;;;11.37;;
6095;SDS011;25081;42.698;23.298;2023-04-03T08:22:40;17.27;;;12.07;;
6095;SDS011;25081;42.698;23.298;2023-04-03T08:24:50;24.97;;;12.67;;
6095;SDS011;25081;42.698;23.298;2023-04-03T08:27:01;22.13;;;12.20;;
6095;SDS011;25081;42.698;23.298;2023-04-03T08:29:11;22.27;;;13.83;;
6095;SDS011;25081;42.698;23.298;2023-04-03T08:31:22;19.43;;;12.00;;
6095;SDS011;25081;42.698;23.298;2023-04-03T08:33:33;18.10;;;12.83;;
6095;SDS011;25081;42.698;23.298;2023-04-03T08:35:43;21.80;;;13.03;;
6095;SDS011;25081;42.698;23.298;2023-04-03T08:37:54;18.70;;;12.10;;
6095;SDS011;25081;42.698;23.298;2023-04-03T08:40:06;16.90;;;10.80;;
6095;SDS011;25081;42.698;23.298;2023-04-03T08:42:19;19.20;;;11.70;;
6095;SDS011;25081;42.698;23.298;2023-04-03T08:44:31;15.40;;;11.10;;
6095;SDS011;25081;42.698;23.298;2023-04-03T08:46:45;18.43;;;11.80;;
6095;SDS011;25081;42.698;23.298;2023-04-03T08:48:57;15.08;;;10.98;;
6095;SDS011;25081;42.698;23.298;2023-04-03T08:51:10;18.47;;;12.20;;
6095;SDS011;25081;42.698;23.298;2023-04-03T08:53:21;22.23;;;13.40;;
6095;SDS011;25081;42.698;23.298;2023-04-03T08:55:33;18.75;;;12.85;;
6095;SDS011;25081;42.698;23.298;2023-04-03T08:57:43;22.23;;;12.73;;
6095;SDS011;25081;42.698;23.298;2023-04-03T08:59:53;17.90;;;11.30;;
6095;SDS011;25081;42.698;23.298;2023-04-03T09:02:12;16.00;;;12.50;;
6095;SDS011;25081;42.698;23.298;2023-04-03T09:04:17;15.37;;;10.50;;
6095;SDS011;25081;42.698;23.298;2023-04-03T09:06:29;16.17;;;11.70;;
6095;SDS011;25081;42.698;23.298;2023-04-03T09:08:40;17.33;;;10.93;;
6095;SDS011;25081;42.698;23.298;2023-04-03T09:10:50;12.67;;;10.90;;
6095;SDS011;25081;42.698;23.298;2023-04-03T09:13:01;16.87;;;11.33;;
6095;SDS011;25081;42.698;23.298;2023-04-03T09:15:17;23.97;;;14.53;;
6095;SDS011;25081;42.698;23.298;2023-04-03T09:17:31;21.33;;;13.73;;
6095;SDS011;25081;42.698;23.298;2023-04-03T09:19:47;26.30;;;14.37;;
6095;SDS011;25081;42.698;23.298;2023-04-03T09:21:58;14.47;;;11.07;;
6095;SDS011;25081;42.698;23.298;2023-04-03T09:24:09;17.90;;;11.40;;
6095;SDS011;25081;42.698;23.298;2023-04-03T09:26:19;16.10;;;10.90;;
6095;SDS011;25081;42.698;23.298;2023-04-03T09:28:29;18.57;;;11.33;;
6095;SDS011;25081;42.698;23.298;2023-04-03T09:30:40;23.53;;;13.83;;
6095;SDS011;25081;42.698;23.298;2023-04-03T09:32:51;23.43;;;14.03;;
6095;SDS011;25081;42.698;23.298;2023-04-03T09:35:02;23.93;;;14.30;;
6095;SDS011;25081;42.698;23.298;2023-04-03T09:37:13;24.13;;;13.27;;
6095;SDS011;25081;42.698;23.298;2023-04-03T09:39:27;19.17;;;14.20;;
6095;SDS011;25081;42.698;23.298;2023-04-03T09:41:35;19.17;;;14.03;;
6095;SDS011;25081;42.698;23.298;2023-04-03T09:43:52;20.00;;;13.30;;
6095;SDS011;25081;42.698;23.298;2023-04-03T09:48:36;21.87;;;14.30;;
6095;SDS011;25081;42.698;23.298;2023-04-03T09:50:53;23.77;;;15.07;;
6095;SDS011;25081;42.698;23.298;2023-04-03T09:53:24;29.53;;;15.93;;
6095;SDS011;25081;42.698;23.298;2023-04-03T09:55:26;36.17;;;16.80;;
6095;SDS011;25081;42.698;23.298;2023-04-03T09:57:36;17.17;;;13.10;;
6095;SDS011;25081;42.698;23.298;2023-04-03T09:59:47;24.70;;;14.10;;
6095;SDS011;25081;42.698;23.298;2023-04-03T10:01:58;22.00;;;13.10;;
6095;SDS011;25081;42.698;23.298;2023-04-03T10:04:10;14.03;;;9.50;;
6095;SDS011;25081;42.698;23.298;2023-04-03T10:06:22;17.03;;;11.97;;
6095;SDS011;25081;42.698;23.298;2023-04-03T10:08:32;18.97;;;12.47;;
6095;SDS011;25081;42.698;23.298;2023-04-03T10:10:43;21.03;;;13.13;;
6095;SDS011;25081;42.698;23.298;2023-04-03T10:13:04;13.00;;;10.83;;
6095;SDS011;25081;42.698;23.298;2023-04-03T10:15:15;15.90;;;11.57;;
6095;SDS011;25081;42.698;23.298;2023-04-03T10:17:29;14.83;;;11.07;;
6095;SDS011;25081;42.698;23.298;2023-04-03T10:19:41;22.37;;;11.77;;
6095;SDS011;25081;42.698;23.298;2023-04-03T10:21:53;17.97;;;12.67;;
6095;SDS011;25081;42.698;23.298;2023-04-03T10:24:05;12.37;;;5.93;;
6095;SDS011;25081;42.698;23.298;2023-04-03T10:26:20;16.03;;;11.20;;
6095;SDS011;25081;42.698;23.298;2023-04-03T10:28:30;25.10;;;10.33;;
6095;SDS011;25081;42.698;23.298;2023-04-03T10:30:44;19.40;;;11.47;;
6095;SDS011;25081;42.698;23.298;2023-04-03T10:33:00;19.97;;;9.63;;
6095;SDS011;25081;42.698;23.298;2023-04-03T10:35:12;12.37;;;7.23;;
6095;SDS011;25081;42.698;23.298;2023-04-03T10:37:23;14.70;;;8.20;;
6095;SDS011;25081;42.698;23.298;2023-04-03T10:39:35;13.00;;;7.80;;
6095;SDS011;25081;42.698;23.298;2023-04-03T10:41:47;9.87;;;6.77;;
6095;SDS011;25081;42.698;23.298;2023-04-03T10:44:02;8.43;;;5.20;;
6095;SDS011;25081;42.698;23.298;2023-04-03T10:46:13;15.17;;;6.10;;
6095;SDS011;25081;42.698;23.298;2023-04-03T10:48:28;9.30;;;6.90;;
6095;SDS011;25081;42.698;23.298;2023-04-03T10:50:51;8.13;;;5.77;;
6095;SDS011;25081;42.698;23.298;2023-04-03T10:53:03;11.40;;;7.00;;
6095;SDS011;25081;42.698;23.298;2023-04-03T10:55:17;9.13;;;6.80;;
6095;SDS011;25081;42.698;23.298;2023-04-03T10:57:27;11.90;;;6.97;;
6095;SDS011;25081;42.698;23.298;2023-04-03T10:59:38;9.20;;;6.60;;
6095;SDS011;25081;42.698;23.298;2023-04-03T11:01:49;14.50;;;7.13;;
6095;SDS011;25081;42.698;23.298;2023-04-03T11:04:00;13.93;;;6.07;;
6095;SDS011;25081;42.698;23.298;2023-04-03T11:06:11;15.90;;;6.23;;
6095;SDS011;25081;42.698;23.298;2023-04-03T11:08:24;7.70;;;5.20;;
6095;SDS011;25081;42.698;23.298;2023-04-03T11:10:37;7.60;;;4.20;;
6095;SDS011;25081;42.698;23.298;2023-04-03T11:12:48;6.07;;;4.67;;
6095;SDS011;25081;42.698;23.298;2023-04-03T11:14:57;6.70;;;4.30;;
6095;SDS011;25081;42.698;23.298;2023-04-03T11:17:21;6.20;;;4.00;;
6095;SDS011;25081;42.698;23.298;2023-04-03T11:19:34;5.27;;;3.50;;
6095;SDS011;25081;42.698;23.298;2023-04-03T11:21:45;6.80;;;4.60;;
6095;SDS011;25081;42.698;23.298;2023-04-03T11:23:56;9.17;;;4.70;;
6095;SDS011;25081;42.698;23.298;2023-04-03T11:26:11;7.30;;;4.60;;
6095;SDS011;25081;42.698;23.298;2023-04-03T11:28:21;5.00;;;3.43;;
6095;SDS011;25081;42.698;23.298;2023-04-03T11:30:32;5.50;;;4.30;;
6095;SDS011;25081;42.698;23.298;2023-04-03T11:35:43;5.20;;;4.10;;
6095;SDS011;25081;42.698;23.298;2023-04-03T11:37:54;7.00;;;3.58;;
6095;SDS011;25081;42.698;23.298;2023-04-03T11:40:06;6.10;;;4.70;;
6095;SDS011;25081;42.698;23.298;2023-04-03T11:42:23;8.10;;;4.53;;
6095;SDS011;25081;42.698;23.298;2023-04-03T11:44:35;6.85;;;3.87;;
6095;SDS011;25081;42.698;23.298;2023-04-03T11:46:52;7.08;;;3.77;;
6095;SDS011;25081;42.698;23.298;2023-04-03T11:49:03;5.10;;;4.50;;
6095;SDS011;25081;42.698;23.298;2023-04-03T11:59:59;6.75;;;4.75;;
6095;SDS011;25081;42.698;23.298;2023-04-03T12:02:36;4.80;;;3.83;;
6095;SDS011;25081;42.698;23.298;2023-04-03T12:07:40;3.60;;;3.10;;
6095;SDS011;25081;42.698;23.298;2023-04-03T12:10:16;4.25;;;3.55;;
6095;SDS011;25081;42.698;23.298;2023-04-03T12:12:30;3.70;;;3.00;;
6095;SDS011;25081;42.698;23.298;2023-04-03T12:14:50;5.35;;;3.47;;
6095;SDS011;25081;42.698;23.298;2023-04-03T12:17:12;4.17;;;3.20;;
6095;SDS011;25081;42.698;23.298;2023-04-03T12:19:32;2.47;;;2.27;;
6095;SDS011;25081;42.698;23.298;2023-04-03T12:24:25;3.52;;;3.22;;
6095;SDS011;25081;42.698;23.298;2023-04-03T12:26:43;4.20;;;3.47;;
6095;SDS011;25081;42.698;23.298;2023-04-03T12:29:01;4.37;;;3.72;;
6095;SDS011;25081;42.698;23.298;2023-04-03T12:31:17;3.87;;;3.58;;
6095;SDS011;25081;42.698;23.298;2023-04-03T12:33:51;5.53;;;3.58;;
6095;SDS011;25081;42.698;23.298;2023-04-03T12:36:02;5.95;;;4.25;;
6095;SDS011;25081;42.698;23.298;2023-04-03T12:38:30;4.95;;;3.70;;
6095;SDS011;25081;42.698;23.298;2023-04-03T12:41:16;6.90;;;4.33;;
6095;SDS011;25081;42.698;23.298;2023-04-03T12:43:39;4.42;;;3.98;;
6095;SDS011;25081;42.698;23.298;2023-04-03T12:45:58;7.47;;;3.50;;
6095;SDS011;25081;42.698;23.298;2023-04-03T12:48:24;4.40;;;3.98;;
6095;SDS011;25081;42.698;23.298;2023-04-03T12:50:37;5.85;;;4.62;;
6095;SDS011;25081;42.698;23.298;2023-04-03T12:52:57;5.92;;;5.28;;
6095;SDS011;25081;42.698;23.298;2023-04-03T12:55:15;6.53;;;5.40;;
6095;SDS011;25081;42.698;23.298;2023-04-03T12:57:30;8.33;;;6.10;;
6095;SDS011;25081;42.698;23.298;2023-04-03T12:59:43;8.30;;;5.50;;
6095;SDS011;25081;42.698;23.298;2023-04-03T13:02:02;7.60;;;5.87;;
6095;SDS011;25081;42.698;23.298;2023-04-03T13:04:22;9.25;;;6.28;;
6095;SDS011;25081;42.698;23.298;2023-04-03T13:06:39;6.22;;;4.90;;
6095;SDS011;25081;42.698;23.298;2023-04-03T13:08:59;6.28;;;5.10;;
6095;SDS011;25081;42.698;23.298;2023-04-03T13:11:22;10.45;;;5.83;;
6095;SDS011;25081;42.698;23.298;2023-04-03T13:13:37;5.72;;;4.17;;
6095;SDS011;25081;42.698;23.298;2023-04-03T13:15:53;8.40;;;5.00;;
6095;SDS011;25081;42.698;23.298;2023-04-03T13:18:05;10.30;;;7.42;;
6095;SDS011;25081;42.698;23.298;2023-04-03T13:20:23;10.28;;;7.40;;
6095;SDS011;25081;42.698;23.298;2023-04-03T13:22:35;5.12;;;4.45;;
6095;SDS011;25081;42.698;23.298;2023-04-03T13:24:50;9.30;;;6.12;;
6095;SDS011;25081;42.698;23.298;2023-04-03T13:27:05;11.30;;;7.25;;
6095;SDS011;25081;42.698;23.298;2023-04-03T13:29:21;8.35;;;7.50;;